sensor_id;sensor_type;location;lat;lon;timestamp;pressure;altitude;pressure_sealevel;temperature;humidity
66479;BME280;53294;47.912;13.526;2023-04-26T00:00:15;96008.97;;;7.84;66.73
66479;BME280;53294;47.912;13.526;2023-04-26T00:02:41;96010.66;;;7.75;67.10
66479;BME280;53294;47.912;13.526;2023-04-26T00:05:08;96007.13;;;7.79;66.82
66479;BME280;53294;47.912;13.526;2023-04-26T00:07:35;96007.31;;;7.59;67.52
66479;BME280;53294;47.912;13.526;2023-04-26T00:10:04;96007.16;;;7.45;67.70
66479;BME280;53294;47.912;13.526;2023-04-26T00:12:31;96010.44;;;7.36;68.19
66479;BME280;53294;47.912;13.526;2023-04-26T00:14:58;96014.00;;;7.22;68.40
66479;BME280;53294;47.912;13.526;2023-04-26T00:17:25;96007.44;;;6.98;68.95
66479;BME280;53294;47.912;13.526;2023-04-26T00:19:52;96007.44;;;6.98;69.23
66479;BME280;53294;47.912;13.526;2023-04-26T00:22:18;96008.47;;;7.08;68.61
66479;BME280;53294;47.912;13.526;2023-04-26T00:24:45;96003.25;;;7.27;67.98
66479;BME280;53294;47.912;13.526;2023-04-26T00:27:12;96009.38;;;7.32;67.89
66479;BME280;53294;47.912;13.526;2023-04-26T00:29:38;96008.31;;;7.28;67.93
66479;BME280;53294;47.912;13.526;2023-04-26T00:32:05;96005.69;;;7.23;68.27
66479;BME280;53294;47.912;13.526;2023-04-26T00:34:36;96006.28;;;7.15;68.66
66479;BME280;53294;47.912;13.526;2023-04-26T00:37:04;96008.09;;;7.25;68.14
66479;BME280;53294;47.912;13.526;2023-04-26T00:39:31;96003.84;;;7.18;68.46
66479;BME280;53294;47.912;13.526;2023-04-26T00:41:57;96011.19;;;7.03;69.20
66479;BME280;53294;47.912;13.526;2023-04-26T00:44:24;96010.44;;;6.92;69.45
66479;BME280;53294;47.912;13.526;2023-04-26T00:46:52;96011.00;;;6.83;69.50
66479;BME280;53294;47.912;13.526;2023-04-26T00:49:22;96017.44;;;6.77;69.84
66479;BME280;53294;47.912;13.526;2023-04-26T00:51:51;96018.28;;;6.73;70.16
66479;BME280;53294;47.912;13.526;2023-04-26T00:54:18;96013.41;;;6.80;69.84
66479;BME280;53294;47.912;13.526;2023-04-26T00:56:46;96018.75;;;6.80;70.06
66479;BME280;53294;47.912;13.526;2023-04-26T00:59:13;96012.91;;;6.78;69.91
66479;BME280;53294;47.912;13.526;2023-04-26T01:01:39;96014.53;;;6.74;70.25
66479;BME280;53294;47.912;13.526;2023-04-26T01:04:07;96020.19;;;6.62;70.81
66479;BME280;53294;47.912;13.526;2023-04-26T01:06:35;96019.97;;;6.48;71.31
66479;BME280;53294;47.912;13.526;2023-04-26T01:09:04;96020.47;;;6.55;70.91
66479;BME280;53294;47.912;13.526;2023-04-26T01:11:36;96031.16;;;6.50;71.85
66479;BME280;53294;47.912;13.526;2023-04-26T01:14:03;96026.63;;;6.56;71.41
66479;BME280;53294;47.912;13.526;2023-04-26T01:16:31;96026.91;;;6.44;71.89
66479;BME280;53294;47.912;13.526;2023-04-26T01:19:06;96027.16;;;6.47;72.00
66479;BME280;53294;47.912;13.526;2023-04-26T01:21:33;96031.97;;;6.51;71.72
66479;BME280;53294;47.912;13.526;2023-04-26T01:24:00;96019.16;;;6.47;71.73
66479;BME280;53294;47.912;13.526;2023-04-26T01:26:26;96027.16;;;6.47;71.74
66479;BME280;53294;47.912;13.526;2023-04-26T01:28:53;96021.00;;;6.52;71.15
66479;BME280;53294;47.912;13.526;2023-04-26T01:31:20;96020.75;;;6.54;71.39
66479;BME280;53294;47.912;13.526;2023-04-26T01:33:47;96021.84;;;6.47;71.62
66479;BME280;53294;47.912;13.526;2023-04-26T01:36:14;96023.75;;;6.42;71.88
66479;BME280;53294;47.912;13.526;2023-04-26T01:38:40;96020.78;;;6.49;71.48
66479;BME280;53294;47.912;13.526;2023-04-26T01:41:07;96021.06;;;6.37;72.26
66479;BME280;53294;47.912;13.526;2023-04-26T01:43:34;96033.03;;;6.44;72.01
66479;BME280;53294;47.912;13.526;2023-04-26T01:46:00;96038.94;;;6.41;72.41
66479;BME280;53294;47.912;13.526;2023-04-26T01:48:27;96035.97;;;6.43;72.22
66479;BME280;53294;47.912;13.526;2023-04-26T01:50:54;96039.47;;;6.43;72.47
66479;BME280;53294;47.912;13.526;2023-04-26T01:53:20;96042.38;;;6.47;72.31
66479;BME280;53294;47.912;13.526;2023-04-26T01:55:47;96043.41;;;6.67;71.56
66479;BME280;53294;47.912;13.526;2023-04-26T01:58:14;96043.84;;;6.79;71.04
66479;BME280;53294;47.912;13.526;2023-04-26T02:00:40;96050.06;;;6.64;71.60
66479;BME280;53294;47.912;13.526;2023-04-26T02:03:07;96052.00;;;6.43;72.13
66479;BME280;53294;47.912;13.526;2023-04-26T02:05:34;96059.78;;;6.29;72.38
66479;BME280;53294;47.912;13.526;2023-04-26T02:08:00;96056.03;;;6.35;71.61
66479;BME280;53294;47.912;13.526;2023-04-26T02:10:27;96064.28;;;6.44;70.99
66479;BME280;53294;47.912;13.526;2023-04-26T02:12:54;96071.00;;;6.31;71.59
66479;BME280;53294;47.912;13.526;2023-04-26T02:15:20;96079.25;;;6.19;72.19
66479;BME280;53294;47.912;13.526;2023-04-26T02:17:47;96076.59;;;6.24;72.09
66479;BME280;53294;47.912;13.526;2023-04-26T02:20:15;96076.31;;;6.26;71.93
66479;BME280;53294;47.912;13.526;2023-04-26T02:22:41;96069.13;;;6.26;72.28
66479;BME280;53294;47.912;13.526;2023-04-26T02:25:08;96065.91;;;6.35;72.11
66479;BME280;53294;47.912;13.526;2023-04-26T02:27:37;96061.09;;;6.32;72.09
66479;BME280;53294;47.912;13.526;2023-04-26T02:30:04;96065.66;;;6.21;72.71
66479;BME280;53294;47.912;13.526;2023-04-26T02:32:30;96056.28;;;6.39;71.70
66479;BME280;53294;47.912;13.526;2023-04-26T02:34:57;96051.50;;;6.36;71.96
66479;BME280;53294;47.912;13.526;2023-04-26T02:37:24;96050.97;;;6.28;72.19
66479;BME280;53294;47.912;13.526;2023-04-26T02:39:52;96050.91;;;6.49;71.15
66479;BME280;53294;47.912;13.526;2023-04-26T02:42:18;96047.19;;;6.50;70.97
66479;BME280;53294;47.912;13.526;2023-04-26T02:44:45;96044.47;;;6.65;70.66
66479;BME280;53294;47.912;13.526;2023-04-26T02:47:12;96039.81;;;6.87;69.53
66479;BME280;53294;47.912;13.526;2023-04-26T02:49:39;96044.34;;;6.91;69.40
66479;BME280;53294;47.912;13.526;2023-04-26T02:52:05;96039.66;;;7.17;68.68
66479;BME280;53294;47.912;13.526;2023-04-26T02:54:32;96044.38;;;7.31;68.14
66479;BME280;53294;47.912;13.526;2023-04-26T02:56:59;96044.63;;;7.34;68.05
66479;BME280;53294;47.912;13.526;2023-04-26T02:59:26;96036.53;;;7.45;67.77
66479;BME280;53294;47.912;13.526;2023-04-26T03:01:52;96026.81;;;7.59;67.33
66479;BME280;53294;47.912;13.526;2023-04-26T03:04:19;96021.41;;;7.64;67.25
66479;BME280;53294;47.912;13.526;2023-04-26T03:06:46;96026.53;;;7.61;67.09
66479;BME280;53294;47.912;13.526;2023-04-26T03:09:13;96036.44;;;7.60;67.25
66479;BME280;53294;47.912;13.526;2023-04-26T03:11:40;96042.28;;;7.28;68.35
66479;BME280;53294;47.912;13.526;2023-04-26T03:14:06;96041.13;;;7.39;67.85
66479;BME280;53294;47.912;13.526;2023-04-26T03:16:40;96040.34;;;7.39;67.91
66479;BME280;53294;47.912;13.526;2023-04-26T03:19:08;96036.09;;;7.32;68.12
66479;BME280;53294;47.912;13.526;2023-04-26T03:21:35;96046.00;;;7.32;67.92
66479;BME280;53294;47.912;13.526;2023-04-26T03:24:02;96031.16;;;7.10;68.55
66479;BME280;53294;47.912;13.526;2023-04-26T03:26:28;96039.53;;;6.93;69.09
66479;BME280;53294;47.912;13.526;2023-04-26T03:28:55;96035.25;;;6.92;68.76
66479;BME280;53294;47.912;13.526;2023-04-26T03:31:22;96028.06;;;6.88;68.75
66479;BME280;53294;47.912;13.526;2023-04-26T03:33:50;96034.22;;;6.83;68.96
66479;BME280;53294;47.912;13.526;2023-04-26T03:36:17;96038.47;;;6.89;68.62
66479;BME280;53294;47.912;13.526;2023-04-26T03:38:43;96035.19;;;7.08;67.85
66479;BME280;53294;47.912;13.526;2023-04-26T03:41:10;96038.03;;;7.22;67.45
66479;BME280;53294;47.912;13.526;2023-04-26T03:43:37;96041.75;;;7.26;67.18
66479;BME280;53294;47.912;13.526;2023-04-26T03:46:04;96035.63;;;7.20;67.40
66479;BME280;53294;47.912;13.526;2023-04-26T03:48:31;96046.38;;;7.15;67.55
66479;BME280;53294;47.912;13.526;2023-04-26T03:50:57;96044.81;;;7.04;67.90
66479;BME280;53294;47.912;13.526;2023-04-26T03:53:24;96048.81;;;7.06;67.87
66479;BME280;53294;47.912;13.526;2023-04-26T03:55:50;96054.09;;;7.16;67.39
66479;BME280;53294;47.912;13.526;2023-04-26T03:58:17;96047.34;;;7.29;67.03
66479;BME280;53294;47.912;13.526;2023-04-26T04:00:44;96048.41;;;7.28;66.83
66479;BME280;53294;47.912;13.526;2023-04-26T04:03:11;96046.78;;;7.32;66.89
66479;BME280;53294;47.912;13.526;2023-04-26T04:05:38;96046.72;;;7.43;66.54
66479;BME280;53294;47.912;13.526;2023-04-26T04:08:05;96050.09;;;7.53;66.11
66479;BME280;53294;47.912;13.526;2023-04-26T04:10:31;96045.28;;;7.55;66.07
66479;BME280;53294;47.912;13.526;2023-04-26T04:12:58;96054.06;;;7.61;65.75
66479;BME280;53294;47.912;13.526;2023-04-26T04:15:25;96058.38;;;7.57;65.74
66479;BME280;53294;47.912;13.526;2023-04-26T04:17:52;96053.19;;;7.36;66.51
66479;BME280;53294;47.912;13.526;2023-04-26T04:20:19;96054.19;;;7.46;66.17
66479;BME280;53294;47.912;13.526;2023-04-26T04:22:46;96063.72;;;7.57;65.88
66479;BME280;53294;47.912;13.526;2023-04-26T04:25:13;96063.47;;;7.53;66.01
66479;BME280;53294;47.912;13.526;2023-04-26T04:27:41;96065.28;;;7.63;65.55
66479;BME280;53294;47.912;13.526;2023-04-26T04:30:09;96067.97;;;7.63;65.55
66479;BME280;53294;47.912;13.526;2023-04-26T04:32:35;96074.88;;;7.69;65.50
66479;BME280;53294;47.912;13.526;2023-04-26T04:35:04;96080.16;;;7.75;65.26
66479;BME280;53294;47.912;13.526;2023-04-26T04:37:31;96073.97;;;7.79;65.15
66479;BME280;53294;47.912;13.526;2023-04-26T04:39:59;96078.56;;;7.73;65.28
66479;BME280;53294;47.912;13.526;2023-04-26T04:42:26;96080.38;;;7.83;65.07
66479;BME280;53294;47.912;13.526;2023-04-26T04:44:53;96088.78;;;7.66;65.52
66479;BME280;53294;47.912;13.526;2023-04-26T04:47:20;96087.19;;;7.65;65.59
66479;BME280;53294;47.912;13.526;2023-04-26T04:49:47;96083.34;;;7.77;65.17
66479;BME280;53294;47.912;13.526;2023-04-26T04:52:13;96086.03;;;7.77;65.36
66479;BME280;53294;47.912;13.526;2023-04-26T04:54:44;96101.00;;;7.78;65.28
66479;BME280;53294;47.912;13.526;2023-04-26T04:57:10;96107.41;;;7.82;65.12
66479;BME280;53294;47.912;13.526;2023-04-26T04:59:37;96107.28;;;7.92;65.11
66479;BME280;53294;47.912;13.526;2023-04-26T05:02:04;96103.06;;;7.86;65.19
66479;BME280;53294;47.912;13.526;2023-04-26T05:04:31;96102.50;;;7.89;65.00
66479;BME280;53294;47.912;13.526;2023-04-26T05:07:00;96114.31;;;7.88;65.14
66479;BME280;53294;47.912;13.526;2023-04-26T05:09:27;96106.78;;;7.90;65.25
66479;BME280;53294;47.912;13.526;2023-04-26T05:11:54;96124.22;;;7.82;65.41
66479;BME280;53294;47.912;13.526;2023-04-26T05:14:20;96119.19;;;7.76;65.72
66479;BME280;53294;47.912;13.526;2023-04-26T05:16:47;96120.72;;;7.87;65.55
66479;BME280;53294;47.912;13.526;2023-04-26T05:19:14;96126.06;;;7.87;65.59
66479;BME280;53294;47.912;13.526;2023-04-26T05:21:41;96125.75;;;7.94;65.43
66479;BME280;53294;47.912;13.526;2023-04-26T05:24:07;96124.78;;;7.79;65.81
66479;BME280;53294;47.912;13.526;2023-04-26T05:26:34;96132.41;;;7.62;66.00
66479;BME280;53294;47.912;13.526;2023-04-26T05:29:01;96132.16;;;7.53;66.37
66479;BME280;53294;47.912;13.526;2023-04-26T05:31:27;96134.31;;;7.51;66.18
66479;BME280;53294;47.912;13.526;2023-04-26T05:33:54;96141.28;;;7.47;66.39
66479;BME280;53294;47.912;13.526;2023-04-26T05:36:21;96140.22;;;7.48;66.39
66479;BME280;53294;47.912;13.526;2023-04-26T05:38:48;96150.22;;;7.27;67.33
66479;BME280;53294;47.912;13.526;2023-04-26T05:41:15;96153.63;;;7.43;66.84
66479;BME280;53294;47.912;13.526;2023-04-26T05:43:41;96156.81;;;7.45;66.71
66479;BME280;53294;47.912;13.526;2023-04-26T05:46:08;96152.00;;;7.42;66.97
66479;BME280;53294;47.912;13.526;2023-04-26T05:48:35;96168.56;;;7.44;67.02
66479;BME280;53294;47.912;13.526;2023-04-26T05:51:01;96160.59;;;7.39;67.38
66479;BME280;53294;47.912;13.526;2023-04-26T05:53:28;96170.56;;;7.12;68.49
66479;BME280;53294;47.912;13.526;2023-04-26T05:55:55;96163.25;;;7.39;67.48
66479;BME280;53294;47.912;13.526;2023-04-26T05:58:21;96165.44;;;7.26;67.92
66479;BME280;53294;47.912;13.526;2023-04-26T06:00:48;96167.50;;;7.45;67.27
66479;BME280;53294;47.912;13.526;2023-04-26T06:03:15;96165.91;;;7.44;66.97
66479;BME280;53294;47.912;13.526;2023-04-26T06:05:42;96174.59;;;7.15;68.62
66479;BME280;53294;47.912;13.526;2023-04-26T06:08:09;96182.06;;;7.18;68.46
66479;BME280;53294;47.912;13.526;2023-04-26T06:10:36;96178.63;;;7.07;68.42
66479;BME280;53294;47.912;13.526;2023-04-26T06:13:05;96183.75;;;6.83;70.25
66479;BME280;53294;47.912;13.526;2023-04-26T06:15:32;96185.69;;;6.36;72.53
66479;BME280;53294;47.912;13.526;2023-04-26T06:17:59;96181.69;;;6.39;72.06
66479;BME280;53294;47.912;13.526;2023-04-26T06:20:26;96180.63;;;6.19;72.69
66479;BME280;53294;47.912;13.526;2023-04-26T06:22:53;96185.41;;;6.22;72.87
66479;BME280;53294;47.912;13.526;2023-04-26T06:25:20;96193.63;;;5.90;74.79
66479;BME280;53294;47.912;13.526;2023-04-26T06:27:47;96196.84;;;5.92;73.36
66479;BME280;53294;47.912;13.526;2023-04-26T06:30:13;96193.44;;;6.22;72.77
66479;BME280;53294;47.912;13.526;2023-04-26T06:32:41;96192.63;;;6.22;71.50
66479;BME280;53294;47.912;13.526;2023-04-26T06:35:08;96206.75;;;6.22;72.29
66479;BME280;53294;47.912;13.526;2023-04-26T06:37:36;96202.50;;;6.32;72.51
66479;BME280;53294;47.912;13.526;2023-04-26T06:40:03;96202.44;;;5.96;74.06
66479;BME280;53294;47.912;13.526;2023-04-26T06:42:30;96199.81;;;6.32;72.22
66479;BME280;53294;47.912;13.526;2023-04-26T06:44:57;96203.53;;;6.72;71.35
66479;BME280;53294;47.912;13.526;2023-04-26T06:47:24;96204.91;;;6.59;72.01
66479;BME280;53294;47.912;13.526;2023-04-26T06:49:51;96209.34;;;6.94;71.49
66479;BME280;53294;47.912;13.526;2023-04-26T06:52:17;96204.47;;;7.22;70.18
66479;BME280;53294;47.912;13.526;2023-04-26T06:54:46;96205.03;;;7.14;70.70
66479;BME280;53294;47.912;13.526;2023-04-26T06:57:22;96210.06;;;7.21;70.33
66479;BME280;53294;47.912;13.526;2023-04-26T06:59:49;96203.91;;;7.30;70.38
66479;BME280;53294;47.912;13.526;2023-04-26T07:02:16;96210.47;;;7.53;69.74
66479;BME280;53294;47.912;13.526;2023-04-26T07:04:43;96208.16;;;7.31;69.75
66479;BME280;53294;47.912;13.526;2023-04-26T07:07:11;96201.34;;;7.60;69.19
66479;BME280;53294;47.912;13.526;2023-04-26T07:09:39;96214.63;;;7.20;70.60
66479;BME280;53294;47.912;13.526;2023-04-26T07:12:06;96209.88;;;7.01;72.34
66479;BME280;53294;47.912;13.526;2023-04-26T07:14:33;96209.75;;;7.37;71.07
66479;BME280;53294;47.912;13.526;2023-04-26T07:17:03;96213.50;;;7.36;70.10
66479;BME280;53294;47.912;13.526;2023-04-26T07:19:30;96212.25;;;7.08;70.97
66479;BME280;53294;47.912;13.526;2023-04-26T07:21:57;96211.22;;;7.04;71.05
66479;BME280;53294;47.912;13.526;2023-04-26T07:24:23;96211.97;;;7.10;70.78
66479;BME280;53294;47.912;13.526;2023-04-26T07:26:51;96213.69;;;6.44;73.85
66479;BME280;53294;47.912;13.526;2023-04-26T07:29:17;96215.28;;;6.19;74.52
66479;BME280;53294;47.912;13.526;2023-04-26T07:31:45;96213.94;;;6.17;75.88
66479;BME280;53294;47.912;13.526;2023-04-26T07:34:11;96209.94;;;5.99;75.14
66479;BME280;53294;47.912;13.526;2023-04-26T07:36:38;96215.53;;;6.02;76.00
66479;BME280;53294;47.912;13.526;2023-04-26T07:39:05;96207.78;;;5.96;76.27
66479;BME280;53294;47.912;13.526;2023-04-26T07:41:34;96213.97;;;6.06;76.56
66479;BME280;53294;47.912;13.526;2023-04-26T07:44:01;96220.78;;;5.71;77.81
66479;BME280;53294;47.912;13.526;2023-04-26T07:46:27;96218.34;;;5.54;79.94
66479;BME280;53294;47.912;13.526;2023-04-26T07:48:54;96216.44;;;5.45;80.03
66479;BME280;53294;47.912;13.526;2023-04-26T07:51:21;96222.63;;;5.61;80.44
66479;BME280;53294;47.912;13.526;2023-04-26T07:53:47;96222.66;;;5.66;79.65
66479;BME280;53294;47.912;13.526;2023-04-26T07:56:14;96227.16;;;5.60;78.31
66479;BME280;53294;47.912;13.526;2023-04-26T07:58:41;96217.28;;;5.61;80.17
66479;BME280;53294;47.912;13.526;2023-04-26T08:01:08;96220.50;;;5.63;79.04
66479;BME280;53294;47.912;13.526;2023-04-26T08:03:37;96228.00;;;5.71;77.81
66479;BME280;53294;47.912;13.526;2023-04-26T08:06:04;96220.75;;;5.56;78.46
66479;BME280;53294;47.912;13.526;2023-04-26T08:08:31;96218.16;;;5.82;77.10
66479;BME280;53294;47.912;13.526;2023-04-26T08:10:58;96218.50;;;6.26;76.03
66479;BME280;53294;47.912;13.526;2023-04-26T08:13:25;96231.59;;;6.59;74.64
66479;BME280;53294;47.912;13.526;2023-04-26T08:15:54;96232.34;;;6.85;74.18
66479;BME280;53294;47.912;13.526;2023-04-26T08:18:21;96225.94;;;6.81;73.37
66479;BME280;53294;47.912;13.526;2023-04-26T08:20:48;96226.47;;;6.83;72.83
66479;BME280;53294;47.912;13.526;2023-04-26T08:23:15;96227.25;;;6.83;73.85
66479;BME280;53294;47.912;13.526;2023-04-26T08:25:41;96222.66;;;7.15;73.55
66479;BME280;53294;47.912;13.526;2023-04-26T08:28:08;96219.88;;;7.41;72.41
66479;BME280;53294;47.912;13.526;2023-04-26T08:30:35;96212.03;;;7.60;71.33
66479;BME280;53294;47.912;13.526;2023-04-26T08:33:02;96213.53;;;7.81;69.70
66479;BME280;53294;47.912;13.526;2023-04-26T08:35:29;96204.69;;;7.91;68.99
66479;BME280;53294;47.912;13.526;2023-04-26T08:37:55;96217.91;;;8.12;68.68
66479;BME280;53294;47.912;13.526;2023-04-26T08:40:23;96203.31;;;8.33;68.42
66479;BME280;53294;47.912;13.526;2023-04-26T08:42:51;96222.56;;;7.96;67.19
66479;BME280;53294;47.912;13.526;2023-04-26T08:45:23;96215.88;;;7.93;65.00
66479;BME280;53294;47.912;13.526;2023-04-26T08:47:52;96209.59;;;7.68;65.77
66479;BME280;53294;47.912;13.526;2023-04-26T08:50:21;96214.97;;;7.68;65.97
66479;BME280;53294;47.912;13.526;2023-04-26T08:52:50;96211.88;;;7.46;65.26
66479;BME280;53294;47.912;13.526;2023-04-26T08:55:18;96202.75;;;7.47;65.67
66479;BME280;53294;47.912;13.526;2023-04-26T08:57:49;96210.81;;;7.42;65.58
66479;BME280;53294;47.912;13.526;2023-04-26T09:00:17;96214.34;;;7.32;66.01
66479;BME280;53294;47.912;13.526;2023-04-26T09:02:47;96211.66;;;7.32;65.99
66479;BME280;53294;47.912;13.526;2023-04-26T09:05:15;96214.00;;;7.49;66.41
66479;BME280;53294;47.912;13.526;2023-04-26T09:07:46;96208.78;;;7.73;65.15
66479;BME280;53294;47.912;13.526;2023-04-26T09:10:17;96214.41;;;7.71;65.88
66479;BME280;53294;47.912;13.526;2023-04-26T09:12:51;96211.22;;;7.69;65.38
66479;BME280;53294;47.912;13.526;2023-04-26T09:15:23;96208.94;;;7.92;65.54
66479;BME280;53294;47.912;13.526;2023-04-26T09:17:50;96217.28;;;7.85;64.53
66479;BME280;53294;47.912;13.526;2023-04-26T09:20:29;96215.34;;;7.96;65.78
66479;BME280;53294;47.912;13.526;2023-04-26T09:25:30;96205.06;;;7.69;62.31
66479;BME280;53294;47.912;13.526;2023-04-26T09:27:58;96210.41;;;7.69;63.61
66479;BME280;53294;47.912;13.526;2023-04-26T09:30:26;96210.03;;;7.91;62.54
66479;BME280;53294;47.912;13.526;2023-04-26T09:32:57;96214.38;;;7.77;63.55
66479;BME280;53294;47.912;13.526;2023-04-26T09:38:02;96208.81;;;7.68;62.55
66479;BME280;53294;47.912;13.526;2023-04-26T09:40:43;96211.13;;;7.80;61.57
66479;BME280;53294;47.912;13.526;2023-04-26T09:43:15;96212.28;;;7.68;62.47
66479;BME280;53294;47.912;13.526;2023-04-26T09:45:56;96214.22;;;8.02;62.03
66479;BME280;53294;47.912;13.526;2023-04-26T09:48:28;96211.94;;;8.25;60.27
66479;BME280;53294;47.912;13.526;2023-04-26T09:51:07;96207.00;;;8.37;59.94
66479;BME280;53294;47.912;13.526;2023-04-26T09:53:35;96213.31;;;8.57;59.03
66479;BME280;53294;47.912;13.526;2023-04-26T09:58:35;96209.00;;;8.61;58.07
66479;BME280;53294;47.912;13.526;2023-04-26T10:01:03;96197.03;;;8.77;57.53
66479;BME280;53294;47.912;13.526;2023-04-26T10:03:33;96204.84;;;8.44;58.51
66479;BME280;53294;47.912;13.526;2023-04-26T10:06:00;96203.72;;;8.51;59.22
66479;BME280;53294;47.912;13.526;2023-04-26T10:08:27;96201.56;;;8.53;57.96
66479;BME280;53294;47.912;13.526;2023-04-26T10:10:54;96193.00;;;8.51;58.81
66479;BME280;53294;47.912;13.526;2023-04-26T10:13:21;96187.28;;;8.92;59.67
66479;BME280;53294;47.912;13.526;2023-04-26T10:15:48;96191.50;;;9.22;58.38
66479;BME280;53294;47.912;13.526;2023-04-26T10:18:14;96188.50;;;9.48;58.12
66479;BME280;53294;47.912;13.526;2023-04-26T10:20:44;96180.38;;;9.53;56.89
66479;BME280;53294;47.912;13.526;2023-04-26T10:23:18;96175.03;;;9.53;55.46
66479;BME280;53294;47.912;13.526;2023-04-26T10:25:51;96172.34;;;9.72;56.46
66479;BME280;53294;47.912;13.526;2023-04-26T10:31:11;96173.31;;;9.38;58.48
66479;BME280;53294;47.912;13.526;2023-04-26T10:33:37;96174.91;;;9.20;58.23
66479;BME280;53294;47.912;13.526;2023-04-26T10:38:32;96160.31;;;9.50;60.56
66479;BME280;53294;47.912;13.526;2023-04-26T10:41:27;96156.53;;;9.08;58.34
66479;BME280;53294;47.912;13.526;2023-04-26T10:43:57;96162.97;;;8.83;55.40
66479;BME280;53294;47.912;13.526;2023-04-26T10:46:38;96161.72;;;9.24;54.58
66479;BME280;53294;47.912;13.526;2023-04-26T10:49:16;96156.34;;;9.24;56.58
66479;BME280;53294;47.912;13.526;2023-04-26T10:52:08;96158.19;;;9.04;60.87
66479;BME280;53294;47.912;13.526;2023-04-26T10:54:56;96166.56;;;9.65;59.52
66479;BME280;53294;47.912;13.526;2023-04-26T11:00:28;96151.69;;;9.10;56.30
66479;BME280;53294;47.912;13.526;2023-04-26T11:03:02;96162.78;;;9.23;58.23
66479;BME280;53294;47.912;13.526;2023-04-26T11:05:49;96153.94;;;9.46;59.05
66479;BME280;53294;47.912;13.526;2023-04-26T11:08:27;96150.81;;;9.39;57.95
66479;BME280;53294;47.912;13.526;2023-04-26T11:11:11;96144.84;;;9.23;56.62
66479;BME280;53294;47.912;13.526;2023-04-26T11:13:40;96134.38;;;9.65;58.73
66479;BME280;53294;47.912;13.526;2023-04-26T11:16:12;96138.28;;;9.92;58.01
66479;BME280;53294;47.912;13.526;2023-04-26T11:18:40;96123.50;;;10.27;57.15
66479;BME280;53294;47.912;13.526;2023-04-26T11:21:08;96123.47;;;10.46;53.95
66479;BME280;53294;47.912;13.526;2023-04-26T11:23:35;96132.75;;;10.68;54.05
66479;BME280;53294;47.912;13.526;2023-04-26T11:26:03;96118.59;;;10.48;50.18
66479;BME280;53294;47.912;13.526;2023-04-26T11:28:32;96126.00;;;10.84;53.45
66479;BME280;53294;47.912;13.526;2023-04-26T11:31:01;96112.78;;;11.52;52.04
66479;BME280;53294;47.912;13.526;2023-04-26T11:33:28;96107.56;;;11.19;49.66
66479;BME280;53294;47.912;13.526;2023-04-26T11:35:56;96108.22;;;11.39;49.12
66479;BME280;53294;47.912;13.526;2023-04-26T11:38:24;96108.09;;;11.94;48.92
66479;BME280;53294;47.912;13.526;2023-04-26T11:40:57;96107.09;;;11.90;46.42
66479;BME280;53294;47.912;13.526;2023-04-26T11:43:33;96110.81;;;12.17;46.23
66479;BME280;53294;47.912;13.526;2023-04-26T11:46:01;96098.06;;;12.31;48.21
66479;BME280;53294;47.912;13.526;2023-04-26T11:48:29;96097.56;;;12.61;47.67
66479;BME280;53294;47.912;13.526;2023-04-26T11:50:57;96103.84;;;12.79;47.43
66479;BME280;53294;47.912;13.526;2023-04-26T11:53:36;96100.19;;;12.83;46.90
66479;BME280;53294;47.912;13.526;2023-04-26T11:56:16;96100.91;;;12.98;50.91
66479;BME280;53294;47.912;13.526;2023-04-26T11:58:50;96103.69;;;12.84;47.63
66479;BME280;53294;47.912;13.526;2023-04-26T12:01:22;96105.16;;;12.90;48.74
66479;BME280;53294;47.912;13.526;2023-04-26T12:03:50;96098.78;;;12.86;46.77
66479;BME280;53294;47.912;13.526;2023-04-26T12:06:18;96103.56;;;12.89;48.44
66479;BME280;53294;47.912;13.526;2023-04-26T12:08:49;96111.63;;;12.89;50.52
66479;BME280;53294;47.912;13.526;2023-04-26T12:11:18;96105.53;;;12.34;49.28
66479;BME280;53294;47.912;13.526;2023-04-26T12:13:45;96106.72;;;12.51;53.22
66479;BME280;53294;47.912;13.526;2023-04-26T12:16:13;96110.69;;;12.53;51.01
66479;BME280;53294;47.912;13.526;2023-04-26T12:18:52;96103.13;;;12.64;53.36
66479;BME280;53294;47.912;13.526;2023-04-26T12:21:19;96109.13;;;12.61;53.32
66479;BME280;53294;47.912;13.526;2023-04-26T12:23:46;96109.91;;;12.53;51.17
66479;BME280;53294;47.912;13.526;2023-04-26T12:26:13;96101.63;;;12.81;50.86
66479;BME280;53294;47.912;13.526;2023-04-26T12:28:40;96101.53;;;13.03;50.12
66479;BME280;53294;47.912;13.526;2023-04-26T12:31:07;96104.78;;;12.74;49.93
66479;BME280;53294;47.912;13.526;2023-04-26T12:33:34;96106.19;;;12.71;51.58
66479;BME280;53294;47.912;13.526;2023-04-26T12:36:06;96112.06;;;12.73;51.18
66479;BME280;53294;47.912;13.526;2023-04-26T12:38:32;96111.13;;;12.78;52.54
66479;BME280;53294;47.912;13.526;2023-04-26T12:40:59;96108.94;;;12.89;52.48
66479;BME280;53294;47.912;13.526;2023-04-26T12:43:26;96111.25;;;13.13;50.03
66479;BME280;53294;47.912;13.526;2023-04-26T12:45:53;96103.72;;;13.41;51.72
66479;BME280;53294;47.912;13.526;2023-04-26T12:48:20;96092.00;;;13.90;48.45
66479;BME280;53294;47.912;13.526;2023-04-26T12:50:47;96093.91;;;13.80;49.56
66479;BME280;53294;47.912;13.526;2023-04-26T12:53:15;96093.59;;;13.91;50.37
66479;BME280;53294;47.912;13.526;2023-04-26T12:55:42;96087.88;;;13.83;48.11
66479;BME280;53294;47.912;13.526;2023-04-26T12:58:09;96092.31;;;13.97;48.87
66479;BME280;53294;47.912;13.526;2023-04-26T13:00:37;96090.91;;;13.82;45.67
66479;BME280;53294;47.912;13.526;2023-04-26T13:03:03;96087.88;;;13.83;47.78
66479;BME280;53294;47.912;13.526;2023-04-26T13:05:30;96083.56;;;13.82;48.29
66479;BME280;53294;47.912;13.526;2023-04-26T13:07:57;96099.63;;;13.79;49.96
66479;BME280;53294;47.912;13.526;2023-04-26T13:10:27;96095.81;;;13.89;47.58
66479;BME280;53294;47.912;13.526;2023-04-26T13:12:54;96092.00;;;13.72;49.58
66479;BME280;53294;47.912;13.526;2023-04-26T13:15:21;96105.47;;;13.46;49.29
66479;BME280;53294;47.912;13.526;2023-04-26T13:17:50;96096.75;;;13.58;48.55